Nordviolet — 9HA4103 — position and weather

sailwx.info

Track history (hours):
 
Tides and Currents Weather Stations Pressure Air Temp Water Temp Dewpoint Dewpoint Depression Visibility Wind Speed Wind Dir Waves Ship Positions

Nordviolet

Last reported at 2018-Feb-20 22:24 UTC. Time now 2018-Feb-24 20:04 UTC.
Position N 37°25' E 023°49'.

Length 170 m; draft 6.8 m.

Type: Ship (hazmat cat A). MMSI: 249094000.

Date/timePositionNaut miles runAvg speedWind from/ knotsBaromVisibWave heightAir tempDewpointWater temp
2018-Feb-20 22:24N 37°25' E 023°49'716.9
2018-Feb-20 22:00N 37°31' E 023°46'816.9
2018-Feb-20 21:30N 37°39' E 023°42'816.8
2018-Feb-20 21:00N 37°47' E 023°38'816.7
2018-Feb-20 20:31N 37°55' E 023°37'3 5.3
2018-Feb-20 20:00N 37°57' E 023°36'0 0.0
2018-Feb-20 19:30N 37°57' E 023°36'0 0.0
2018-Feb-20 19:00N 37°57' E 023°36'0 0.0
2018-Feb-20 18:30N 37°57' E 023°36'0 0.0
2018-Feb-20 18:00N 37°57' E 023°36'0 0.0
2018-Feb-20 17:30N 37°57' E 023°36'0 0.0
2018-Feb-20 17:00N 37°57' E 023°36'0 0.0
2018-Feb-20 16:30N 37°57' E 023°36'0 0.0
2018-Feb-20 16:00N 37°57' E 023°36'0 0.0
2018-Feb-20 15:30N 37°57' E 023°36'0 0.0
2018-Feb-20 15:00N 37°57' E 023°36'0 0.0
2018-Feb-20 14:30N 37°57' E 023°36'0 0.0
2018-Feb-20 14:00N 37°57' E 023°36'0 0.0
2018-Feb-20 13:30N 37°57' E 023°36'0 0.0
2018-Feb-20 13:00N 37°57' E 023°36'0 0.0
2018-Feb-20 12:30N 37°57' E 023°36'0 0.0
2018-Feb-20 12:00N 37°57' E 023°36'0 0.0
2018-Feb-20 11:30N 37°57' E 023°36'0 0.0
2018-Feb-20 11:00N 37°57' E 023°36'0 0.0
2018-Feb-20 10:30N 37°57' E 023°36'0 0.0
2018-Feb-20 10:00N 37°57' E 023°36'0 0.0
2018-Feb-20 09:30N 37°57' E 023°36'0 0.0
2018-Feb-20 09:00N 37°57' E 023°36'0 0.0
2018-Feb-20 08:30N 37°57' E 023°36'0 0.0
2018-Feb-20 08:00N 37°57' E 023°36'0 0.0
2018-Feb-20 07:30N 37°57' E 023°36'0 0.0
2018-Feb-20 07:00N 37°57' E 023°36'0 0.0
2018-Feb-20 06:30N 37°57' E 023°36'0 0.0
2018-Feb-20 06:00N 37°57' E 023°36'0 0.2
2018-Feb-20 05:30N 37°57' E 023°36'2 4.9
2018-Feb-20 05:00N 37°55' E 023°36'3 5.5
2018-Feb-20 04:30N 37°52' E 023°35'0 0.7
2018-Feb-20 04:00N 37°52' E 023°35'1 1.1
2018-Feb-20 03:30N 37°52' E 023°36'611.1
2018-Feb-20 03:00N 37°48' E 023°40'714.2
2018-Feb-20 02:30N 37°42' E 023°44'612.7
2018-Feb-20 02:00N 37°39' E 023°51'813.7
2018-Feb-20 01:25N 37°37' E 024°01'2113.8
2018-Feb-19 23:53N 37°49' E 024°24'514.5
2018-Feb-19 23:30N 37°52' E 024°29'  
2018-Feb-17 17:01N 46°10' E 031°00'116.1
2018-Feb-17 16:56N 46°11' E 030°59'715.9
2018-Feb-17 16:30N 46°17' E 030°53'816.6
2018-Feb-17 16:00N 46°25' E 030°50'611.7
2018-Feb-17 15:30N 46°30' E 030°46'1 1.1
2018-Feb-17 15:00N 46°29' E 030°46'0 0.0
2018-Feb-17 14:30N 46°29' E 030°46'0 0.0
2018-Feb-17 14:00N 46°29' E 030°46'0 0.0
2018-Feb-17 13:30N 46°29' E 030°46'0 0.0
2018-Feb-17 13:00N 46°29' E 030°46'0 0.0
2018-Feb-17 12:30N 46°29' E 030°46'0 0.0
2018-Feb-17 12:00N 46°29' E 030°46'0 0.0
2018-Feb-17 11:30N 46°29' E 030°46'0 0.0
2018-Feb-17 11:00N 46°29' E 030°46'0 0.0
2018-Feb-17 10:30N 46°29' E 030°46'0 0.0
2018-Feb-17 10:00N 46°29' E 030°46'0 0.0
2018-Feb-17 09:30N 46°29' E 030°46'0 0.0
2018-Feb-17 09:00N 46°29' E 030°46'0 0.0
2018-Feb-17 08:30N 46°29' E 030°46'0 0.0
2018-Feb-17 08:00N 46°29' E 030°46'2 3.1
2018-Feb-17 07:30N 46°30' E 030°48'1 1.8
2018-Feb-17 07:00N 46°30' E 030°49'1 2.1
2018-Feb-17 06:30N 46°30' E 030°51'0 0.9
2018-Feb-17 06:00N 46°30' E 030°51'0 0.0
2018-Feb-17 05:30N 46°30' E 030°51'0 0.0
2018-Feb-17 04:57N 46°30' E 030°51'0 0.0
2018-Feb-17 04:30N 46°30' E 030°51'0 0.1
2018-Feb-17 04:00N 46°30' E 030°51'3 5.8
2018-Feb-17 03:30N 46°27' E 030°51'510.8
2018-Feb-17 03:00N 46°22' E 030°53'611.1
2018-Feb-17 02:30N 46°17' E 030°57'612.0
2018-Feb-17 01:59N 46°12' E 031°03'284 8.5
2018-Feb-15 16:21N 44°23' E 037°16'411.7
2018-Feb-15 16:00N 44°25' E 037°21'611.5
2018-Feb-15 15:30N 44°27' E 037°29'611.2
2018-Feb-15 15:00N 44°30' E 037°36'511.0
2018-Feb-15 14:30N 44°34' E 037°41'611.4
2018-Feb-15 14:00N 44°37' E 037°47'5 9.2
2018-Feb-15 13:30N 44°42' E 037°49'2 3.4
2018-Feb-15 13:00N 44°43' E 037°49'0 0.1
2018-Feb-15 12:30N 44°43' E 037°49'0 0.0
2018-Feb-15 12:00N 44°43' E 037°49'0 0.0
2018-Feb-15 11:30N 44°43' E 037°49'0 0.0
2018-Feb-15 11:00N 44°43' E 037°49'0 0.0
2018-Feb-15 10:30N 44°43' E 037°49'0 0.0
2018-Feb-15 10:00N 44°43' E 037°49'0 0.0
2018-Feb-15 09:30N 44°43' E 037°49'0 0.0
2018-Feb-15 09:00N 44°43' E 037°49'0 0.0
2018-Feb-15 08:30N 44°43' E 037°49'0 0.0
2018-Feb-15 08:00N 44°43' E 037°49'0 0.0
2018-Feb-15 07:30N 44°43' E 037°49'0 0.0
2018-Feb-15 07:00N 44°43' E 037°49'0 0.0
2018-Feb-15 06:24N 44°43' E 037°49'0 0.0
2018-Feb-15 06:00N 44°43' E 037°49'0 0.0
2018-Feb-15 05:30N 44°43' E 037°49'0 0.0
2018-Feb-15 05:00N 44°43' E 037°49'0 0.0
2018-Feb-15 04:30N 44°43' E 037°49'0 0.0
2018-Feb-15 04:00N 44°43' E 037°49'0 0.0
2018-Feb-15 03:30N 44°43' E 037°49'0 0.0
2018-Feb-15 03:00N 44°43' E 037°49'0 0.0
2018-Feb-15 02:30N 44°43' E 037°49'0 0.0
2018-Feb-15 02:00N 44°43' E 037°49'0 0.0
2018-Feb-15 01:30N 44°43' E 037°49'0 0.0
2018-Feb-15 01:00N 44°43' E 037°49'0 0.0
2018-Feb-15 00:30N 44°43' E 037°49'0 0.0
2018-Feb-15 00:00N 44°43' E 037°49'0 0.0
2018-Feb-14 23:30N 44°43' E 037°49'0 0.0
2018-Feb-14 23:00N 44°43' E 037°49'0 0.0
2018-Feb-14 22:30N 44°43' E 037°49'0 0.0
2018-Feb-14 22:00N 44°43' E 037°49'0 0.0
2018-Feb-14 21:30N 44°43' E 037°49'0 0.0
2018-Feb-14 21:00N 44°43' E 037°49'0 0.0
2018-Feb-14 20:30N 44°43' E 037°49'0 0.0
2018-Feb-14 20:00N 44°43' E 037°49'0 0.8
2018-Feb-14 19:31N 44°43' E 037°48'3 6.7
2018-Feb-14 19:00N 44°40' E 037°50'4 7.8
2018-Feb-14 18:31N 44°36' E 037°51'714.7
2018-Feb-14 18:00N 44°31' E 037°44'816.5
2018-Feb-14 17:30N 44°27' E 037°34'1 2.4
2018-Feb-14 17:00N 44°26' E 037°33'0 0.6
2018-Feb-14 16:30N 44°26' E 037°33'0 0.5
2018-Feb-14 15:59N 44°27' E 037°33'0 0.6
2018-Feb-14 15:28N 44°26' E 037°33'0 0.9
2018-Feb-14 15:00N 44°27' E 037°34'2 4.7
2018-Feb-14 14:30N 44°29' E 037°35'2 4.0
2018-Feb-14 14:00N 44°31' E 037°36'1937.6
2018-Feb-14 13:31N 44°36' E 038°01'0 0.0
2018-Feb-14 12:58N 44°36' E 038°01'2550.1
2018-Feb-14 12:29N 44°25' E 037°30'2 5.0
2018-Feb-14 12:00N 44°23' E 037°28'4 7.7
2018-Feb-14 11:29N 44°22' E 037°23'4 8.2
2018-Feb-14 10:57N 44°20' E 037°17'41611.5
2018-Feb-12 22:40N 41°02' E 028°60'213.2
2018-Feb-12 22:29N 40°59' E 028°60'610.0
2018-Feb-12 21:56N 40°54' E 028°57'511.4
2018-Feb-12 21:30N 40°51' E 028°51'24512.3
2018-Feb-12 01:33N 37°30' E 025°52'115.8
2018-Feb-12 01:30N 37°29' E 025°52'23714.2
2018-Feb-11 08:50N 35°49' E 030°20'  
Track history (hours):
 
Tides and Currents Weather Stations Pressure Air Temp Water Temp Dewpoint Dewpoint Depression Visibility Wind Speed Wind Dir Waves Ship Positions

Nordviolet

Last reported at 2018-Feb-20 22:24 UTC. Time now 2018-Feb-24 20:04 UTC.
Position N 37°25' E 023°49'.

Length 170 m; draft 6.8 m.

Type: Ship (hazmat cat A). MMSI: 249094000.

Date/timePositionNaut miles runAvg speedWind from/ knotsBaromVisibWave heightAir tempDewpointWater temp
2018-Feb-20 22:24N 37°25' E 023°49'716.9
2018-Feb-20 22:00N 37°31' E 023°46'816.9
2018-Feb-20 21:30N 37°39' E 023°42'816.8
2018-Feb-20 21:00N 37°47' E 023°38'816.7
2018-Feb-20 20:31N 37°55' E 023°37'3 5.3
2018-Feb-20 20:00N 37°57' E 023°36'0 0.0
2018-Feb-20 19:30N 37°57' E 023°36'0 0.0
2018-Feb-20 19:00N 37°57' E 023°36'0 0.0
2018-Feb-20 18:30N 37°57' E 023°36'0 0.0
2018-Feb-20 18:00N 37°57' E 023°36'0 0.0
2018-Feb-20 17:30N 37°57' E 023°36'0 0.0
2018-Feb-20 17:00N 37°57' E 023°36'0 0.0
2018-Feb-20 16:30N 37°57' E 023°36'0 0.0
2018-Feb-20 16:00N 37°57' E 023°36'0 0.0
2018-Feb-20 15:30N 37°57' E 023°36'0 0.0
2018-Feb-20 15:00N 37°57' E 023°36'0 0.0
2018-Feb-20 14:30N 37°57' E 023°36'0 0.0
2018-Feb-20 14:00N 37°57' E 023°36'0 0.0
2018-Feb-20 13:30N 37°57' E 023°36'0 0.0
2018-Feb-20 13:00N 37°57' E 023°36'0 0.0
2018-Feb-20 12:30N 37°57' E 023°36'0 0.0
2018-Feb-20 12:00N 37°57' E 023°36'0 0.0
2018-Feb-20 11:30N 37°57' E 023°36'0 0.0
2018-Feb-20 11:00N 37°57' E 023°36'0 0.0
2018-Feb-20 10:30N 37°57' E 023°36'0 0.0
2018-Feb-20 10:00N 37°57' E 023°36'0 0.0
2018-Feb-20 09:30N 37°57' E 023°36'0 0.0
2018-Feb-20 09:00N 37°57' E 023°36'0 0.0
2018-Feb-20 08:30N 37°57' E 023°36'0 0.0
2018-Feb-20 08:00N 37°57' E 023°36'0 0.0
2018-Feb-20 07:30N 37°57' E 023°36'0 0.0
2018-Feb-20 07:00N 37°57' E 023°36'0 0.0
2018-Feb-20 06:30N 37°57' E 023°36'0 0.0
2018-Feb-20 06:00N 37°57' E 023°36'0 0.2
2018-Feb-20 05:30N 37°57' E 023°36'2 4.9
2018-Feb-20 05:00N 37°55' E 023°36'3 5.5
2018-Feb-20 04:30N 37°52' E 023°35'0 0.7
2018-Feb-20 04:00N 37°52' E 023°35'1 1.1
2018-Feb-20 03:30N 37°52' E 023°36'611.1
2018-Feb-20 03:00N 37°48' E 023°40'714.2
2018-Feb-20 02:30N 37°42' E 023°44'612.7
2018-Feb-20 02:00N 37°39' E 023°51'813.7
2018-Feb-20 01:25N 37°37' E 024°01'2113.8
2018-Feb-19 23:53N 37°49' E 024°24'514.5
2018-Feb-19 23:30N 37°52' E 024°29'  
2018-Feb-17 17:01N 46°10' E 031°00'116.1
2018-Feb-17 16:56N 46°11' E 030°59'715.9
2018-Feb-17 16:30N 46°17' E 030°53'816.6
2018-Feb-17 16:00N 46°25' E 030°50'611.7
2018-Feb-17 15:30N 46°30' E 030°46'1 1.1
2018-Feb-17 15:00N 46°29' E 030°46'0 0.0
2018-Feb-17 14:30N 46°29' E 030°46'0 0.0
2018-Feb-17 14:00N 46°29' E 030°46'0 0.0
2018-Feb-17 13:30N 46°29' E 030°46'0 0.0
2018-Feb-17 13:00N 46°29' E 030°46'0 0.0
2018-Feb-17 12:30N 46°29' E 030°46'0 0.0
2018-Feb-17 12:00N 46°29' E 030°46'0 0.0
2018-Feb-17 11:30N 46°29' E 030°46'0 0.0
2018-Feb-17 11:00N 46°29' E 030°46'0 0.0
2018-Feb-17 10:30N 46°29' E 030°46'0 0.0
2018-Feb-17 10:00N 46°29' E 030°46'0 0.0
2018-Feb-17 09:30N 46°29' E 030°46'0 0.0
2018-Feb-17 09:00N 46°29' E 030°46'0 0.0
2018-Feb-17 08:30N 46°29' E 030°46'0 0.0
2018-Feb-17 08:00N 46°29' E 030°46'2 3.1
2018-Feb-17 07:30N 46°30' E 030°48'1 1.8
2018-Feb-17 07:00N 46°30' E 030°49'1 2.1
2018-Feb-17 06:30N 46°30' E 030°51'0 0.9
2018-Feb-17 06:00N 46°30' E 030°51'0 0.0
2018-Feb-17 05:30N 46°30' E 030°51'0 0.0
2018-Feb-17 04:57N 46°30' E 030°51'0 0.0
2018-Feb-17 04:30N 46°30' E 030°51'0 0.1
2018-Feb-17 04:00N 46°30' E 030°51'3 5.8
2018-Feb-17 03:30N 46°27' E 030°51'510.8
2018-Feb-17 03:00N 46°22' E 030°53'611.1
2018-Feb-17 02:30N 46°17' E 030°57'612.0
2018-Feb-17 01:59N 46°12' E 031°03'284 8.5
2018-Feb-15 16:21N 44°23' E 037°16'411.7
2018-Feb-15 16:00N 44°25' E 037°21'611.5
2018-Feb-15 15:30N 44°27' E 037°29'611.2
2018-Feb-15 15:00N 44°30' E 037°36'511.0
2018-Feb-15 14:30N 44°34' E 037°41'611.4
2018-Feb-15 14:00N 44°37' E 037°47'5 9.2
2018-Feb-15 13:30N 44°42' E 037°49'2 3.4
2018-Feb-15 13:00N 44°43' E 037°49'0 0.1
2018-Feb-15 12:30N 44°43' E 037°49'0 0.0
2018-Feb-15 12:00N 44°43' E 037°49'0 0.0
2018-Feb-15 11:30N 44°43' E 037°49'0 0.0
2018-Feb-15 11:00N 44°43' E 037°49'0 0.0
2018-Feb-15 10:30N 44°43' E 037°49'0 0.0
2018-Feb-15 10:00N 44°43' E 037°49'0 0.0
2018-Feb-15 09:30N 44°43' E 037°49'0 0.0
2018-Feb-15 09:00N 44°43' E 037°49'0 0.0
2018-Feb-15 08:30N 44°43' E 037°49'0 0.0
2018-Feb-15 08:00N 44°43' E 037°49'0 0.0
2018-Feb-15 07:30N 44°43' E 037°49'0 0.0
2018-Feb-15 07:00N 44°43' E 037°49'0 0.0
2018-Feb-15 06:24N 44°43' E 037°49'0 0.0
2018-Feb-15 06:00N 44°43' E 037°49'0 0.0
2018-Feb-15 05:30N 44°43' E 037°49'0 0.0
2018-Feb-15 05:00N 44°43' E 037°49'0 0.0
2018-Feb-15 04:30N 44°43' E 037°49'0 0.0
2018-Feb-15 04:00N 44°43' E 037°49'0 0.0
2018-Feb-15 03:30N 44°43' E 037°49'0 0.0
2018-Feb-15 03:00N 44°43' E 037°49'0 0.0
2018-Feb-15 02:30N 44°43' E 037°49'0 0.0
2018-Feb-15 02:00N 44°43' E 037°49'0 0.0
2018-Feb-15 01:30N 44°43' E 037°49'0 0.0
2018-Feb-15 01:00N 44°43' E 037°49'0 0.0
2018-Feb-15 00:30N 44°43' E 037°49'0 0.0
2018-Feb-15 00:00N 44°43' E 037°49'0 0.0
2018-Feb-14 23:30N 44°43' E 037°49'0 0.0
2018-Feb-14 23:00N 44°43' E 037°49'0 0.0
2018-Feb-14 22:30N 44°43' E 037°49'0 0.0
2018-Feb-14 22:00N 44°43' E 037°49'0 0.0
2018-Feb-14 21:30N 44°43' E 037°49'0 0.0
2018-Feb-14 21:00N 44°43' E 037°49'0 0.0
2018-Feb-14 20:30N 44°43' E 037°49'0 0.0
2018-Feb-14 20:00N 44°43' E 037°49'0 0.8
2018-Feb-14 19:31N 44°43' E 037°48'3 6.7
2018-Feb-14 19:00N 44°40' E 037°50'4 7.8
2018-Feb-14 18:31N 44°36' E 037°51'714.7
2018-Feb-14 18:00N 44°31' E 037°44'816.5
2018-Feb-14 17:30N 44°27' E 037°34'1 2.4
2018-Feb-14 17:00N 44°26' E 037°33'0 0.6
2018-Feb-14 16:30N 44°26' E 037°33'0 0.5
2018-Feb-14 15:59N 44°27' E 037°33'0 0.6
2018-Feb-14 15:28N 44°26' E 037°33'0 0.9
2018-Feb-14 15:00N 44°27' E 037°34'2 4.7
2018-Feb-14 14:30N 44°29' E 037°35'2 4.0
2018-Feb-14 14:00N 44°31' E 037°36'1937.6
2018-Feb-14 13:31N 44°36' E 038°01'0 0.0
2018-Feb-14 12:58N 44°36' E 038°01'2550.1
2018-Feb-14 12:29N 44°25' E 037°30'2 5.0
2018-Feb-14 12:00N 44°23' E 037°28'4 7.7
2018-Feb-14 11:29N 44°22' E 037°23'4 8.2
2018-Feb-14 10:57N 44°20' E 037°17'41611.5
2018-Feb-12 22:40N 41°02' E 028°60'213.2
2018-Feb-12 22:29N 40°59' E 028°60'610.0
2018-Feb-12 21:56N 40°54' E 028°57'511.4
2018-Feb-12 21:30N 40°51' E 028°51'24512.3
2018-Feb-12 01:33N 37°30' E 025°52'115.8
2018-Feb-12 01:30N 37°29' E 025°52'23714.2
2018-Feb-11 08:50N 35°49' E 030°20'  

Dump ship's entire track history